Time;durP1;ratioP1;P1;durP2;ratioP2;P2;SDS_P1;SDS_P2;PMS_P1;PMS_P2;Temp;Humidity;BMP_temperature;BMP_pressure;BME280_temperature;BME280_humidity;BME280_pressure;Samples;Min_cycle;Max_cycle;Signal;HPM_P1;HPM_P2
2022/10/29 00:01:15;;;;;;;38.20;22.20;;;;;;;6.31;99.90;102086.45;107356;1272;62298;-71
2022/10/29 00:03:46;;;;;;;36.80;22.10;;;;;;;6.28;99.80;102085.85;107460;1259;57311;-72
2022/10/29 00:06:15;;;;;;;34.40;21.40;;;;;;;6.26;99.90;102082.98;107340;1261;59087;-72
2022/10/29 00:08:43;;;;;;;38.10;22.00;;;;;;;6.23;99.76;102080.14;107271;1269;63388;-73
2022/10/29 00:11:18;;;;;;;35.40;21.90;;;;;;;6.17;99.94;102079.30;107402;1261;72086;-72
2022/10/29 00:13:53;;;;;;;39.30;22.70;;;;;;;6.14;99.78;102082.34;107199;1273;60238;-70
2022/10/29 00:16:26;;;;;;;42.70;23.00;;;;;;;6.11;99.88;102087.45;107198;1267;62334;-72
2022/10/29 00:18:56;;;;;;;35.60;23.30;;;;;;;6.08;100.00;102087.72;107349;1261;62889;-72
2022/10/29 00:21:26;;;;;;;41.70;26.30;;;;;;;6.06;100.00;102086.90;107222;1264;57691;-71
2022/10/29 00:23:57;;;;;;;43.80;26.40;;;;;;;6.06;100.00;102088.11;107097;1266;63058;-71
2022/10/29 00:26:29;;;;;;;39.30;23.40;;;;;;;6.05;100.00;102089.19;107246;1270;60901;-71
2022/10/29 00:28:57;;;;;;;42.10;23.50;;;;;;;6.02;100.00;102087.39;107097;1268;69747;-71
2022/10/29 00:31:26;;;;;;;38.10;23.40;;;;;;;5.98;100.00;102085.77;107313;1263;63869;-72
2022/10/29 00:33:55;;;;;;;41.60;25.20;;;;;;;5.95;100.00;102082.77;107262;1267;62919;-71
2022/10/29 00:36:27;;;;;;;39.50;23.80;;;;;;;5.93;100.00;102082.14;107132;1276;60683;-71
2022/10/29 00:38:56;;;;;;;37.60;23.50;;;;;;;5.92;100.00;102082.15;107210;1271;73566;-71
2022/10/29 00:41:28;;;;;;;41.50;24.00;;;;;;;5.88;99.98;102079.30;107362;1261;71887;-72
2022/10/29 00:44:35;;;;;;;40.90;24.30;;;;;;;5.85;100.00;102076.65;107381;1258;71848;-71
2022/10/29 00:47:12;;;;;;;42.60;25.20;;;;;;;5.79;100.00;102071.81;106912;1274;72506;-73
2022/10/29 00:49:42;;;;;;;43.40;25.60;;;;;;;5.74;100.00;102069.52;107174;1270;57776;-72
2022/10/29 00:52:11;;;;;;;40.10;24.90;;;;;;;5.72;100.00;102068.55;107314;1265;61166;-72
2022/10/29 00:54:44;;;;;;;38.30;24.00;;;;;;;5.68;100.00;102070.95;107317;1273;73526;-70
2022/10/29 00:57:25;;;;;;;;;;;;;;;5.65;100.00;102072.25;107433;1270;61869;-72
2022/10/29 00:59:54;;;;;;;37.80;24.40;;;;;;;5.61;100.00;102067.36;107430;1270;70336;-71
2022/10/29 01:02:23;;;;;;;39.50;25.70;;;;;;;5.58;100.00;102063.27;107418;1266;73170;-72
2022/10/29 01:04:52;;;;;;;37.20;23.60;;;;;;;5.58;100.00;102064.69;107360;1270;61601;-71
2022/10/29 01:07:21;;;;;;;41.50;24.10;;;;;;;5.58;100.00;102062.08;107368;1266;60245;-71
2022/10/29 01:09:49;;;;;;;47.70;26.90;;;;;;;5.60;100.00;102053.73;107298;1264;74069;-71
2022/10/29 01:12:45;;;;;;;35.80;22.50;;;;;;;5.57;100.00;102053.27;107483;1262;61113;-72
2022/10/29 01:15:18;;;;;;;35.90;22.70;;;;;;;5.53;100.00;102051.49;107365;1263;70478;-71
2022/10/29 01:18:12;;;;;;;35.60;22.40;;;;;;;5.54;100.00;102049.92;107359;1274;63453;-72
2022/10/29 01:21:11;;;;;;;41.80;22.90;;;;;;;5.56;100.00;102049.02;107279;1261;57091;-71
2022/10/29 01:24:45;;;;;;;36.80;23.10;;;;;;;5.52;99.98;102049.45;107352;1263;57660;-70
2022/10/29 01:27:43;;;;;;;39.30;23.10;;;;;;;5.44;100.00;102046.94;107161;1266;64376;-71
2022/10/29 01:30:45;;;;;;;36.00;21.90;;;;;;;5.47;100.00;102045.66;107373;1264;71875;-71
2022/10/29 01:33:30;;;;;;;36.40;22.10;;;;;;;5.42;99.50;102039.74;107072;1258;70786;-72
2022/10/29 01:36:24;;;;;;;36.20;21.00;;;;;;;5.34;99.01;102037.39;107319;1266;63467;-72
2022/10/29 01:39:28;;;;;;;34.30;21.10;;;;;;;5.27;98.94;102036.21;107377;1274;57077;-72
2022/10/29 01:42:39;;;;;;;35.50;21.70;;;;;;;5.19;99.07;102041.28;107347;1267;57356;-72
2022/10/29 01:45:25;;;;;;;31.90;21.00;;;;;;;5.10;99.80;102044.98;106865;1279;72030;-72
2022/10/29 01:48:00;;;;;;;37.20;21.80;;;;;;;5.04;99.59;102043.09;107433;1257;62010;-71
2022/10/29 01:50:29;;;;;;;32.30;20.10;;;;;;;5.00;99.40;102041.66;107271;1273;70353;-71
2022/10/29 01:52:59;;;;;;;34.20;21.30;;;;;;;4.99;99.68;102040.46;107315;1263;73040;-71
2022/10/29 01:55:34;;;;;;;38.50;23.30;;;;;;;4.96;99.97;102040.55;107424;1265;62995;-71
2022/10/29 01:58:05;;;;;;;37.80;23.40;;;;;;;4.93;100.00;102042.52;107293;1267;62130;-72
2022/10/29 02:00:54;;;;;;;38.80;23.50;;;;;;;4.90;100.00;102037.77;107231;1270;73995;-71
2022/10/29 02:03:50;;;;;;;37.50;21.90;;;;;;;4.86;100.00;102040.83;107436;1258;71557;-71
2022/10/29 02:06:50;;;;;;;37.50;22.80;;;;;;;4.87;100.00;102038.39;107337;1269;59115;-71
2022/10/29 02:09:48;;;;;;;40.10;22.30;;;;;;;4.87;100.00;102034.58;107399;1263;62403;-71
2022/10/29 02:12:24;;;;;;;39.10;22.10;;;;;;;4.83;100.00;102037.27;107304;1263;61980;-72
2022/10/29 02:15:20;;;;;;;35.20;21.90;;;;;;;4.80;100.00;102038.57;107347;1270;60326;-70
2022/10/29 02:17:49;;;;;;;38.40;22.20;;;;;;;4.77;100.00;102038.48;107254;1260;73159;-72
2022/10/29 02:20:18;;;;;;;37.20;21.60;;;;;;;4.74;99.97;102037.02;107381;1259;71610;-71
2022/10/29 02:22:47;;;;;;;39.60;22.30;;;;;;;4.69;99.97;102032.64;107331;1273;70659;-71
2022/10/29 02:25:15;;;;;;;33.70;20.20;;;;;;;4.68;99.94;102028.86;107377;1264;62307;-71
2022/10/29 02:27:44;;;;;;;37.60;22.40;;;;;;;4.70;99.93;102028.84;107377;1266;57420;-71
2022/10/29 02:30:13;;;;;;;34.80;21.90;;;;;;;4.69;99.62;102026.08;107391;1267;61106;-72
2022/10/29 02:32:42;;;;;;;36.90;20.80;;;;;;;4.68;99.50;102027.68;107349;1269;63269;-71
2022/10/29 02:35:10;;;;;;;36.30;22.70;;;;;;;4.66;99.39;102028.08;107461;1267;72164;-71
2022/10/29 02:37:39;;;;;;;41.70;25.80;;;;;;;4.65;99.88;102025.86;107507;1266;60071;-71
2022/10/29 02:40:08;;;;;;;41.30;24.00;;;;;;;4.65;100.00;102028.45;107481;1267;74239;-73
2022/10/29 02:42:37;;;;;;;41.00;24.60;;;;;;;4.64;100.00;102025.35;107464;1267;57072;-71
2022/10/29 02:45:06;;;;;;;39.80;24.10;;;;;;;4.66;100.00;102023.77;107525;1262;60589;-76
2022/10/29 02:47:34;;;;;;;37.40;22.40;;;;;;;4.66;100.00;102023.77;107498;1266;73921;-71
2022/10/29 02:50:04;;;;;;;40.00;23.70;;;;;;;4.64;100.00;102019.85;107599;1263;61891;-73
2022/10/29 02:52:32;;;;;;;42.00;24.50;;;;;;;4.64;100.00;102022.60;107491;1273;70169;-71
2022/10/29 02:55:01;;;;;;;39.10;23.20;;;;;;;4.63;100.00;102017.29;107491;1259;63037;-73
2022/10/29 02:57:29;;;;;;;39.10;21.40;;;;;;;4.61;100.00;102024.42;107413;1263;62076;-72
2022/10/29 02:59:58;;;;;;;34.90;22.00;;;;;;;4.61;100.00;102023.56;107516;1263;58164;-71
2022/10/29 03:02:27;;;;;;;37.70;23.40;;;;;;;4.59;100.00;102021.21;107437;1269;72619;-71
2022/10/29 03:04:55;;;;;;;38.70;23.60;;;;;;;4.56;100.00;102025.92;107495;1263;73050;-73
2022/10/29 03:07:24;;;;;;;37.30;22.80;;;;;;;4.55;100.00;102025.09;107564;1266;59671;-72
2022/10/29 03:09:52;;;;;;;37.10;22.70;;;;;;;4.55;100.00;102027.88;107443;1273;73890;-72
2022/10/29 03:12:21;;;;;;;41.10;22.60;;;;;;;4.52;100.00;102029.13;107535;1267;57442;-71
2022/10/29 03:14:49;;;;;;;34.70;22.20;;;;;;;4.54;100.00;102030.30;107533;1264;60651;-71
2022/10/29 03:17:18;;;;;;;38.20;24.00;;;;;;;4.56;100.00;102026.98;107565;1267;63206;-71
2022/10/29 03:19:46;;;;;;;40.80;23.60;;;;;;;4.56;100.00;102030.40;107637;1260;71290;-70
2022/10/29 03:22:15;;;;;;;40.60;23.40;;;;;;;4.56;100.00;102033.02;107557;1262;59764;-71
2022/10/29 03:24:44;;;;;;;36.80;21.70;;;;;;;4.56;100.00;102027.14;107506;1263;73758;-72
2022/10/29 03:27:12;;;;;;;35.80;21.50;;;;;;;4.57;100.00;102024.02;107533;1266;57112;-72
2022/10/29 03:29:41;;;;;;;39.50;23.60;;;;;;;4.56;100.00;102024.89;107533;1267;60389;-72
2022/10/29 03:32:09;;;;;;;31.30;20.60;;;;;;;4.52;100.00;102028.44;107522;1267;63737;-72
2022/10/29 03:34:38;;;;;;;35.20;22.50;;;;;;;4.51;100.00;102026.57;107651;1258;71986;-71
2022/10/29 03:37:06;;;;;;;35.80;21.60;;;;;;;4.56;100.00;102017.29;107528;1258;60471;-71
2022/10/29 03:39:35;;;;;;;34.20;21.70;;;;;;;4.57;100.00;102016.94;107502;1263;72970;-72
2022/10/29 03:42:03;;;;;;;38.70;24.00;;;;;;;4.54;99.82;102016.48;107505;1267;57029;-72
2022/10/29 03:44:32;;;;;;;36.20;21.60;;;;;;;4.51;99.93;102018.09;107550;1264;57588;-72
2022/10/29 03:47:00;;;;;;;38.10;21.80;;;;;;;4.51;100.00;102008.28;107478;1259;73316;-73
2022/10/29 03:49:29;;;;;;;38.70;21.50;;;;;;;4.49;99.72;102004.38;107635;1258;61024;-72
2022/10/29 03:51:57;;;;;;;40.20;23.30;;;;;;;4.46;99.89;102010.48;107509;1263;70380;-72
2022/10/29 03:54:26;;;;;;;38.00;22.20;;;;;;;4.45;99.95;102009.14;107484;1273;63326;-74
2022/10/29 03:56:55;;;;;;;36.50;21.90;;;;;;;4.44;100.00;101999.67;107524;1267;60220;-72
2022/10/29 03:59:23;;;;;;;35.30;22.70;;;;;;;4.42;100.00;101997.31;107417;1273;57139;-71
2022/10/29 04:01:52;;;;;;;41.20;24.30;;;;;;;4.37;100.00;101995.36;107311;1267;62894;-71
2022/10/29 04:04:20;;;;;;;41.30;24.40;;;;;;;4.37;100.00;101993.83;107600;1258;72105;-72
2022/10/29 04:06:49;;;;;;;39.40;23.40;;;;;;;4.36;100.00;101995.91;107478;1259;59774;-70
2022/10/29 04:09:17;;;;;;;44.50;23.10;;;;;;;4.35;100.00;101998.88;107519;1263;72713;-71
2022/10/29 04:11:46;;;;;;;37.50;23.60;;;;;;;4.32;100.00;101998.08;107499;1262;57430;-72
2022/10/29 04:14:15;;;;;;;37.60;24.30;;;;;;;4.32;100.00;101998.61;107520;1263;57384;-71
2022/10/29 04:16:43;;;;;;;36.10;21.80;;;;;;;4.32;100.00;102001.38;107524;1271;72863;-71
2022/10/29 04:19:12;;;;;;;34.00;21.20;;;;;;;4.30;100.00;101994.69;107463;1273;61912;-71
2022/10/29 04:21:41;;;;;;;37.80;21.20;;;;;;;4.28;100.00;101991.64;107435;1275;70474;-72
2022/10/29 04:24:29;;;;;;;33.70;20.20;;;;;;;4.22;100.00;101988.70;107495;1263;63015;-72
2022/10/29 04:27:17;;;;;;;31.40;20.10;;;;;;;4.18;100.00;101991.21;107405;1273;62081;-72
2022/10/29 04:30:07;;;;;;;34.50;21.00;;;;;;;4.13;100.00;101994.95;107519;1263;60057;-72
2022/10/29 04:32:36;;;;;;;38.30;20.90;;;;;;;4.11;100.00;101993.79;107558;1269;62141;-71
2022/10/29 04:35:05;;;;;;;38.70;21.00;;;;;;;4.11;100.00;101996.38;107565;1263;71041;-72
2022/10/29 04:37:34;;;;;;;35.70;21.30;;;;;;;4.10;100.00;101999.88;107525;1263;70420;-72
2022/10/29 04:40:03;;;;;;;45.00;23.60;;;;;;;4.09;100.00;102001.09;107311;1275;62741;-72
2022/10/29 04:42:36;;;;;;;45.10;25.50;;;;;;;4.08;100.00;102002.66;107434;1270;62523;-72
2022/10/29 04:45:06;;;;;;;40.30;23.20;;;;;;;4.07;100.00;102001.48;107548;1273;57129;-72
2022/10/29 04:47:35;;;;;;;33.20;22.80;;;;;;;4.07;100.00;101995.80;107556;1259;62880;-73
2022/10/29 04:50:04;;;;;;;35.10;21.90;;;;;;;4.08;100.00;101993.02;107652;1258;71996;-71
2022/10/29 04:52:32;;;;;;;33.30;22.30;;;;;;;4.06;100.00;101993.39;107517;1262;70667;-72
2022/10/29 04:55:01;;;;;;;34.40;21.00;;;;;;;4.07;100.00;101994.92;107528;1265;62793;-71
2022/10/29 04:57:29;;;;;;;36.70;21.10;;;;;;;4.06;100.00;101990.31;107533;1263;62077;-72
2022/10/29 04:59:58;;;;;;;42.10;21.90;;;;;;;4.05;100.00;101992.21;107520;1273;57222;-72
2022/10/29 05:02:27;;;;;;;35.90;20.60;;;;;;;4.04;100.00;101998.29;107492;1264;73487;-73
2022/10/29 05:04:55;;;;;;;37.20;21.90;;;;;;;4.05;100.00;102003.62;107644;1268;62136;-72
2022/10/29 05:07:24;;;;;;;30.10;19.70;;;;;;;4.09;100.00;102004.89;107533;1273;70201;-73
2022/10/29 05:09:52;;;;;;;37.60;21.50;;;;;;;4.12;100.00;102004.46;107466;1267;62795;-69
2022/10/29 05:12:21;;;;;;;35.40;21.00;;;;;;;4.17;100.00;102005.17;107569;1273;61228;-73
2022/10/29 05:14:49;;;;;;;40.50;23.30;;;;;;;4.17;100.00;102008.63;107534;1269;57169;-72
2022/10/29 05:17:17;;;;;;;40.10;22.80;;;;;;;4.24;100.00;102014.17;107500;1273;72624;-72
2022/10/29 05:19:46;;;;;;;41.20;22.80;;;;;;;4.34;100.00;102019.43;107633;1258;61222;-74
2022/10/29 05:22:15;;;;;;;36.30;20.90;;;;;;;4.41;100.00;102030.27;107535;1266;69793;-74
2022/10/29 05:24:43;;;;;;;39.70;26.10;;;;;;;4.46;100.00;102028.06;107482;1263;62682;-73
2022/10/29 05:27:12;;;;;;;63.50;38.30;;;;;;;4.56;100.00;102030.45;107506;1269;60461;-72
2022/10/29 05:29:40;;;;;;;55.70;36.90;;;;;;;4.64;100.00;102029.68;107374;1275;60708;-72
2022/10/29 05:32:09;;;;;;;57.50;29.90;;;;;;;4.74;100.00;102029.23;107451;1269;63808;-72
2022/10/29 05:34:37;;;;;;;54.70;29.00;;;;;;;4.89;100.00;102025.73;107476;1267;71235;-73
2022/10/29 05:37:11;;;;;;;51.80;30.60;;;;;;;5.00;100.00;102031.46;107437;1263;59444;-72
2022/10/29 05:39:40;;;;;;;45.70;29.30;;;;;;;5.15;99.96;102030.85;107448;1273;63158;-73
2022/10/29 05:42:10;;;;;;;49.50;27.60;;;;;;;5.27;99.07;102030.31;107461;1263;61207;-73
2022/10/29 05:44:38;;;;;;;50.50;29.60;;;;;;;5.39;97.95;102032.59;107509;1268;57958;-73
2022/10/29 05:47:07;;;;;;;50.20;29.80;;;;;;;5.52;96.94;102039.80;107522;1259;73473;-73
2022/10/29 05:49:35;;;;;;;59.90;34.90;;;;;;;5.64;97.77;102039.44;107616;1273;61861;-72
2022/10/29 05:52:04;;;;;;;54.20;32.30;;;;;;;5.77;97.88;102039.86;107466;1265;69320;-73
2022/10/29 05:54:32;;;;;;;55.60;31.20;;;;;;;5.89;97.92;102032.09;107489;1263;74200;-73
2022/10/29 05:57:01;;;;;;;57.70;31.60;;;;;;;6.00;96.63;102028.83;107368;1270;57094;-74
2022/10/29 05:59:29;;;;;;;54.90;31.20;;;;;;;6.08;95.25;102025.61;107473;1262;60570;-74
2022/10/29 06:02:01;;;;;;;56.50;31.70;;;;;;;6.16;95.21;102026.90;107500;1267;70795;-73
2022/10/29 06:04:29;;;;;;;56.10;32.10;;;;;;;6.24;95.28;102027.52;107575;1264;71355;-73
2022/10/29 06:07:00;;;;;;;54.60;34.20;;;;;;;6.34;95.40;102027.34;107436;1273;59408;-72
2022/10/29 06:09:28;;;;;;;55.10;33.00;;;;;;;6.46;94.80;102024.02;107282;1263;63241;-73
2022/10/29 06:11:57;;;;;;;65.30;35.60;;;;;;;6.58;94.36;102023.77;107443;1273;62849;-74
2022/10/29 06:14:25;;;;;;;62.40;37.20;;;;;;;6.71;94.63;102024.86;107492;1266;60866;-72
2022/10/29 06:16:54;;;;;;;60.00;35.40;;;;;;;6.84;94.58;102029.58;107539;1259;62092;-73
2022/10/29 06:19:22;;;;;;;69.70;35.30;;;;;;;6.99;94.00;102029.58;107651;1267;72063;-73
2022/10/29 06:21:51;;;;;;;66.00;34.40;;;;;;;7.11;94.39;102032.61;107479;1270;59858;-73
2022/10/29 06:24:25;;;;;;;59.30;34.40;;;;;;;7.25;94.48;102031.39;107486;1263;73027;-74
2022/10/29 06:26:53;;;;;;;63.10;35.00;;;;;;;7.33;93.88;102030.55;107459;1268;57889;-74
2022/10/29 06:29:22;;;;;;;58.00;33.80;;;;;;;7.46;93.53;102031.61;107540;1266;57651;-74
2022/10/29 06:31:50;;;;;;;60.10;33.60;;;;;;;7.61;93.56;102032.41;107536;1266;71820;-73
2022/10/29 06:34:19;;;;;;;59.10;31.90;;;;;;;7.74;93.70;102030.71;107662;1258;61202;-74
2022/10/29 06:36:47;;;;;;;63.50;32.70;;;;;;;7.86;92.33;102032.47;107555;1264;68528;-73
2022/10/29 06:39:16;;;;;;;56.30;32.90;;;;;;;8.01;92.49;102034.85;107530;1259;62737;-73
2022/10/29 06:41:45;;;;;;;53.20;31.10;;;;;;;8.15;91.92;102038.05;107507;1269;62877;-73
2022/10/29 06:44:17;;;;;;;53.00;30.70;;;;;;;8.30;90.95;102041.65;107397;1266;59696;-73
2022/10/29 06:46:46;;;;;;;47.10;29.30;;;;;;;8.42;91.33;102043.06;107497;1259;62591;-73
2022/10/29 06:49:14;;;;;;;45.50;27.40;;;;;;;8.55;89.92;102040.26;107549;1260;72221;-73
2022/10/29 06:51:43;;;;;;;47.80;29.00;;;;;;;8.60;89.03;102033.41;107564;1261;68983;-73
2022/10/29 06:54:11;;;;;;;44.40;28.00;;;;;;;8.71;88.71;102030.35;107502;1270;72012;-73
2022/10/29 06:56:40;;;;;;;41.80;25.60;;;;;;;8.77;88.85;102025.90;107372;1269;57732;-73
2022/10/29 06:59:09;;;;;;;38.80;24.40;;;;;;;8.91;88.10;102029.29;107549;1263;61612;-74
2022/10/29 07:01:37;;;;;;;45.20;25.40;;;;;;;9.04;87.93;102024.38;107493;1264;62886;-73
2022/10/29 07:04:06;;;;;;;38.90;24.80;;;;;;;9.18;87.55;102014.51;107652;1254;61603;-74
2022/10/29 07:06:34;;;;;;;37.70;24.30;;;;;;;9.33;87.09;102008.62;107522;1266;70872;-72
2022/10/29 07:09:03;;;;;;;40.40;24.30;;;;;;;9.50;87.61;102011.48;107449;1268;63128;-73
2022/10/29 07:11:31;;;;;;;39.10;22.50;;;;;;;9.58;85.11;102009.52;107461;1259;62037;-73
2022/10/29 07:14:00;;;;;;;38.30;22.00;;;;;;;9.70;85.16;102012.09;107497;1269;57658;-72
2022/10/29 07:16:28;;;;;;;35.00;22.10;;;;;;;9.86;85.42;102011.83;107222;1269;393775;-73
2022/10/29 07:18:57;;;;;;;37.50;19.90;;;;;;;9.98;85.22;102011.23;107669;1264;61916;-72
2022/10/29 07:21:26;;;;;;;34.40;21.70;;;;;;;10.07;84.77;102009.40;107555;1260;69647;-73
2022/10/29 07:23:56;;;;;;;39.80;24.40;;;;;;;10.16;83.32;102008.61;107523;1259;74368;-75
2022/10/29 07:26:24;;;;;;;34.20;20.70;;;;;;;10.31;84.11;102007.55;107521;1263;63249;-72
2022/10/29 07:28:57;;;;;;;30.40;21.10;;;;;;;10.44;82.94;102007.60;107490;1273;57277;-71
2022/10/29 07:31:25;;;;;;;39.00;23.00;;;;;;;10.49;80.95;102001.39;107526;1261;72918;-73
2022/10/29 07:33:55;;;;;;;33.80;21.50;;;;;;;10.57;80.72;102003.91;107624;1264;62012;-73
2022/10/29 07:36:24;;;;;;;35.50;22.40;;;;;;;10.69;80.07;102006.28;107479;1267;59196;-73
2022/10/29 07:38:52;;;;;;;34.10;22.20;;;;;;;10.86;80.06;102010.59;107466;1273;73734;-73
2022/10/29 07:41:21;;;;;;;33.30;21.50;;;;;;;11.04;80.63;102008.23;107486;1269;57631;-72
2022/10/29 07:43:49;;;;;;;39.50;22.20;;;;;;;11.20;80.19;102008.23;107487;1263;60651;-73
2022/10/29 07:46:18;;;;;;;37.00;21.70;;;;;;;11.25;78.76;102004.86;107499;1266;63322;-73
2022/10/29 07:48:46;;;;;;;45.90;23.10;;;;;;;11.39;78.28;102000.06;107508;1259;72081;-73
2022/10/29 07:51:15;;;;;;;31.90;22.20;;;;;;;11.55;78.07;102003.18;107459;1267;59480;-73
2022/10/29 07:53:43;;;;;;;35.60;22.00;;;;;;;11.69;77.71;101998.38;107457;1263;73787;-74
2022/10/29 07:56:12;;;;;;;41.90;23.10;;;;;;;11.75;77.04;101999.83;107357;1266;57774;-73
2022/10/29 07:58:40;;;;;;;39.80;23.40;;;;;;;11.79;75.97;101999.08;107404;1266;60313;-75
2022/10/29 08:01:09;;;;;;;39.30;23.90;;;;;;;11.89;76.21;101997.09;107452;1263;62573;-73
2022/10/29 08:03:38;;;;;;;39.70;23.30;;;;;;;12.00;75.01;101992.80;107659;1262;70411;-74
2022/10/29 08:06:06;;;;;;;43.90;23.90;;;;;;;12.10;74.16;101988.39;107523;1264;60327;-73
2022/10/29 08:08:35;;;;;;;41.10;25.20;;;;;;;12.11;74.37;101983.06;107362;1273;62480;-72
2022/10/29 08:11:04;;;;;;;42.30;24.90;;;;;;;12.26;74.14;101982.74;107510;1259;61170;-73
2022/10/29 08:13:33;;;;;;;41.20;24.70;;;;;;;12.33;73.92;101977.23;107472;1270;61095;-73
2022/10/29 08:16:01;;;;;;;41.50;25.70;;;;;;;12.49;73.65;101969.46;107363;1269;72658;-73
2022/10/29 08:18:30;;;;;;;41.40;25.10;;;;;;;12.67;74.40;101964.19;107357;1269;61947;-73
2022/10/29 08:21:04;;;;;;;44.80;25.40;;;;;;;12.81;72.80;101956.16;107643;1262;70367;-73
2022/10/29 08:23:32;;;;;;;44.10;25.90;;;;;;;12.92;72.44;101957.71;107630;1261;63034;-72
2022/10/29 08:26:01;;;;;;;43.20;26.10;;;;;;;13.02;71.66;101958.48;107604;1266;59320;-72
2022/10/29 08:28:30;;;;;;;47.50;26.10;;;;;;;13.12;71.14;101958.20;107617;1267;57701;-79
2022/10/29 08:31:03;;;;;;;48.00;26.90;;;;;;;13.30;71.03;101955.91;107595;1269;72626;-72
2022/10/29 08:33:32;;;;;;;44.90;26.90;;;;;;;13.47;70.81;101955.10;107707;1253;72411;-73
2022/10/29 08:36:00;;;;;;;46.90;24.60;;;;;;;13.62;69.71;101957.48;107604;1254;60140;-73
2022/10/29 08:38:29;;;;;;;43.20;24.00;;;;;;;13.73;69.26;101956.05;107673;1260;73399;-78
2022/10/29 08:41:21;;;;;;;48.00;22.80;;;;;;;13.89;68.96;101956.41;107631;1266;57307;-74
2022/10/29 08:44:02;;;;;;;35.50;23.20;;;;;;;14.11;69.97;101953.88;107658;1266;60365;-72
2022/10/29 08:46:43;;;;;;;36.10;22.60;;;;;;;14.29;68.99;101950.36;107629;1259;73000;-75
2022/10/29 08:49:48;;;;;;;34.30;20.70;;;;;;;14.40;67.83;101950.69;107662;1269;72749;-73
2022/10/29 08:52:27;;;;;;;30.10;20.30;;;;;;;14.55;68.64;101951.06;107534;1263;60268;-76
2022/10/29 08:55:26;;;;;;;32.60;19.70;;;;;;;14.63;65.51;101939.83;107449;1269;73838;-75
2022/10/29 08:58:39;;;;;;;28.50;18.70;;;;;;;14.61;64.77;101935.21;107508;1269;57416;-74
2022/10/29 09:01:11;;;;;;;34.70;20.70;;;;;;;14.82;65.83;101936.88;107032;1272;60447;-76
2022/10/29 09:03:39;;;;;;;33.60;20.00;;;;;;;15.01;64.94;101936.59;107324;1262;73463;-74
2022/10/29 09:06:22;;;;;;;30.90;19.90;;;;;;;15.18;65.26;101944.98;107603;1253;61228;-73
2022/10/29 09:09:36;;;;;;;30.80;18.00;;;;;;;15.36;64.30;101940.58;107301;1260;69596;-73
2022/10/29 09:12:17;;;;;;;28.00;17.00;;;;;;;15.48;62.85;101932.63;107475;1266;73433;-75
2022/10/29 09:15:22;;;;;;;30.90;16.60;;;;;;;15.62;62.32;101930.23;107477;1264;60678;-74
2022/10/29 09:18:31;;;;;;;25.30;17.00;;;;;;;15.69;61.77;101923.05;107531;1263;57437;-74
2022/10/29 09:21:31;;;;;;;22.70;15.80;;;;;;;15.87;62.23;101916.91;107407;1263;62607;-72
2022/10/29 09:24:42;;;;;;;27.50;16.00;;;;;;;16.05;60.69;101913.80;107612;1269;72089;-74
2022/10/29 09:27:42;;;;;;;24.90;15.60;;;;;;;16.07;60.15;101905.90;107480;1266;70626;-73
2022/10/29 09:30:19;;;;;;;23.10;15.80;;;;;;;16.25;59.55;101909.29;107445;1270;71957;-72
2022/10/29 09:33:07;;;;;;;22.30;15.10;;;;;;;16.36;59.90;101904.92;107438;1259;57637;-73
2022/10/29 09:35:45;;;;;;;20.30;14.20;;;;;;;16.46;58.55;101905.54;107522;1263;59374;-74
2022/10/29 09:39:16;;;;;;;20.10;13.30;;;;;;;16.48;57.60;101893.77;107435;1263;74131;-73
2022/10/29 09:41:53;;;;;;;19.40;12.90;;;;;;;16.62;57.15;101887.38;107509;1262;62062;-72
2022/10/29 09:44:26;;;;;;;20.90;13.40;;;;;;;16.79;56.68;101879.16;107659;1260;70401;-74
2022/10/29 09:47:16;;;;;;;26.30;15.00;;;;;;;16.74;56.55;101880.27;107697;1266;63348;-73
2022/10/29 09:49:58;;;;;;;23.70;13.70;;;;;;;16.75;56.91;101874.79;107697;1269;57116;-74
2022/10/29 09:52:44;;;;;;;21.70;14.30;;;;;;;16.81;56.84;101871.14;107677;1258;57690;-72
2022/10/29 09:55:25;;;;;;;23.80;15.50;;;;;;;16.88;56.77;101865.30;107627;1260;73443;-72
2022/10/29 09:57:56;;;;;;;22.00;14.50;;;;;;;17.16;57.39;101861.45;107650;1260;71845;-73
2022/10/29 10:00:29;;;;;;;21.90;15.30;;;;;;;17.28;56.21;101860.80;107638;1261;69053;-72
2022/10/29 10:03:21;;;;;;;24.70;16.30;;;;;;;17.43;56.21;101860.23;107668;1262;74074;-72
2022/10/29 10:06:01;;;;;;;24.30;15.50;;;;;;;17.57;55.50;101858.02;107633;1260;60164;-72
2022/10/29 10:08:31;;;;;;;23.50;14.90;;;;;;;17.59;54.90;101859.77;107756;1268;60801;-73
2022/10/29 10:11:05;;;;;;;17.20;13.60;;;;;;;17.71;54.75;101853.13;107567;1263;62614;-74
2022/10/29 10:13:55;;;;;;;23.70;14.60;;;;;;;17.99;54.97;101850.98;107756;1261;61888;-72
2022/10/29 10:16:27;;;;;;;21.40;14.20;;;;;;;18.11;53.89;101842.02;107679;1266;69295;-73
2022/10/29 10:18:55;;;;;;;21.40;14.20;;;;;;;18.23;52.63;101832.30;107676;1260;73564;-72
2022/10/29 10:21:27;;;;;;;21.80;15.10;;;;;;;18.50;52.29;101833.58;107788;1264;57112;-72
2022/10/29 10:23:57;;;;;;;23.40;14.80;;;;;;;18.91;51.28;101830.73;107673;1259;57601;-73
2022/10/29 10:26:27;;;;;;;22.20;14.00;;;;;;;19.09;50.37;101827.11;107672;1267;62939;-71
2022/10/29 10:29:15;;;;;;;21.60;12.80;;;;;;;19.39;50.11;101822.80;107735;1264;72028;-73
2022/10/29 10:31:56;;;;;;;19.60;13.60;;;;;;;19.56;50.31;101819.06;107694;1260;61809;-72
2022/10/29 10:34:35;;;;;;;19.80;14.20;;;;;;;19.78;49.98;101818.86;107473;1263;62458;-72
2022/10/29 10:37:10;;;;;;;18.50;13.30;;;;;;;20.14;50.64;101814.30;107660;1267;57621;-72
2022/10/29 10:40:21;;;;;;;29.00;14.30;;;;;;;20.48;48.48;101808.56;107581;1272;58031;-73
2022/10/29 10:42:54;;;;;;;23.10;13.30;;;;;;;20.26;47.53;101801.00;107501;1269;73483;-72
2022/10/29 10:45:27;;;;;;;23.30;13.40;;;;;;;20.81;48.22;101797.77;107815;1264;61396;-75
2022/10/29 10:47:57;;;;;;;21.90;13.30;;;;;;;21.21;47.64;101790.80;107643;1266;59930;-74
2022/10/29 10:50:33;;;;;;;19.30;11.60;;;;;;;21.27;44.87;101784.36;107619;1269;73681;-74
2022/10/29 10:53:33;;;;;;;17.20;11.80;;;;;;;21.31;44.86;101781.30;107643;1265;57309;-73
2022/10/29 10:56:02;;;;;;;19.90;12.00;;;;;;;21.42;44.04;101776.79;107540;1258;61265;-72
2022/10/29 10:58:41;;;;;;;18.00;11.20;;;;;;;21.97;45.44;101768.33;107620;1266;72840;-72
2022/10/29 11:01:21;;;;;;;18.30;11.80;;;;;;;21.60;43.47;101761.87;107841;1255;61095;-72
2022/10/29 11:04:37;;;;;;;19.00;11.90;;;;;;;21.45;43.64;101754.85;107673;1269;59982;-72
2022/10/29 11:07:13;;;;;;;13.40;9.00;;;;;;;21.38;43.28;101744.57;107691;1264;62489;-73
2022/10/29 11:12:02;;;;;;;14.40;9.80;;;;;;;22.36;43.30;101731.89;103042;1299;600065;-78
2022/10/29 11:14:51;;;;;;;14.10;9.30;;;;;;;22.29;42.15;101730.88;105139;1277;59006;-77
2022/10/29 11:17:31;;;;;;;16.10;10.00;;;;;;;22.29;41.06;101731.37;105347;1270;61436;-79
2022/10/29 11:20:13;;;;;;;13.20;8.10;;;;;;;22.12;41.20;101725.20;105505;1275;61741;-77
2022/10/29 11:23:07;;;;;;;;;;;;;;;21.81;40.66;101718.50;105126;1282;71911;-77
2022/10/29 11:26:10;;;;;;;18.20;9.20;;;;;;;21.92;40.51;101712.06;105308;1277;353114;-77
2022/10/29 11:28:50;;;;;;;11.80;7.90;;;;;;;21.52;40.62;101704.90;105572;1270;72316;-76
2022/10/29 11:32:01;;;;;;;13.90;7.80;;;;;;;21.52;40.59;101715.66;105589;1275;58201;-76
2022/10/29 11:35:02;;;;;;;12.30;7.50;;;;;;;21.84;40.03;101709.83;105543;1270;60098;-76
2022/10/29 11:38:15;;;;;;;11.30;7.10;;;;;;;22.26;38.85;101699.79;105500;1270;71692;-77
2022/10/29 11:41:03;;;;;;;10.30;5.90;;;;;;;22.59;38.35;101696.45;105553;1274;61419;-84
2022/10/29 11:43:33;;;;;;;9.10;6.10;;;;;;;22.86;38.26;101691.02;105630;1276;59885;-77